sensor_id;sensor_type;location;lat;lon;timestamp;P1;durP1;ratioP1;P2;durP2;ratioP2
71038;SDS011;58692;43.212;27.908;2022-12-16T00:00:14;47.73;;;26.97;;
71038;SDS011;58692;43.212;27.908;2022-12-16T00:02:40;50.45;;;26.90;;
71038;SDS011;58692;43.212;27.908;2022-12-16T00:05:06;54.42;;;26.33;;
71038;SDS011;58692;43.212;27.908;2022-12-16T00:07:32;51.95;;;29.33;;
71038;SDS011;58692;43.212;27.908;2022-12-16T00:09:57;51.53;;;28.90;;
71038;SDS011;58692;43.212;27.908;2022-12-16T00:12:23;59.50;;;29.23;;
71038;SDS011;58692;43.212;27.908;2022-12-16T00:14:48;59.55;;;31.67;;
71038;SDS011;58692;43.212;27.908;2022-12-16T00:17:14;56.87;;;29.70;;
71038;SDS011;58692;43.212;27.908;2022-12-16T00:19:39;50.80;;;28.20;;
71038;SDS011;58692;43.212;27.908;2022-12-16T00:22:05;45.03;;;23.55;;
71038;SDS011;58692;43.212;27.908;2022-12-16T00:24:31;50.67;;;26.20;;
71038;SDS011;58692;43.212;27.908;2022-12-16T00:26:57;45.95;;;25.15;;
71038;SDS011;58692;43.212;27.908;2022-12-16T00:29:22;49.43;;;24.57;;
71038;SDS011;58692;43.212;27.908;2022-12-16T00:31:48;43.70;;;23.37;;
71038;SDS011;58692;43.212;27.908;2022-12-16T00:34:14;41.03;;;20.70;;
71038;SDS011;58692;43.212;27.908;2022-12-16T00:36:39;34.55;;;18.73;;
71038;SDS011;58692;43.212;27.908;2022-12-16T00:39:05;32.53;;;17.10;;
71038;SDS011;58692;43.212;27.908;2022-12-16T00:41:31;33.15;;;16.75;;
71038;SDS011;58692;43.212;27.908;2022-12-16T00:43:56;27.93;;;14.00;;
71038;SDS011;58692;43.212;27.908;2022-12-16T00:46:22;28.17;;;14.80;;
71038;SDS011;58692;43.212;27.908;2022-12-16T00:48:47;30.95;;;16.35;;
71038;SDS011;58692;43.212;27.908;2022-12-16T00:51:13;32.50;;;16.50;;
71038;SDS011;58692;43.212;27.908;2022-12-16T00:53:38;29.93;;;17.10;;
71038;SDS011;58692;43.212;27.908;2022-12-16T00:56:04;31.67;;;17.00;;
71038;SDS011;58692;43.212;27.908;2022-12-16T00:58:32;31.35;;;15.43;;
71038;SDS011;58692;43.212;27.908;2022-12-16T01:00:58;29.90;;;15.43;;
71038;SDS011;58692;43.212;27.908;2022-12-16T01:03:23;28.00;;;14.18;;
71038;SDS011;58692;43.212;27.908;2022-12-16T01:05:49;26.63;;;13.03;;
71038;SDS011;58692;43.212;27.908;2022-12-16T01:08:14;26.25;;;14.15;;
71038;SDS011;58692;43.212;27.908;2022-12-16T01:10:40;29.07;;;13.20;;
71038;SDS011;58692;43.212;27.908;2022-12-16T01:13:06;26.97;;;13.60;;
71038;SDS011;58692;43.212;27.908;2022-12-16T01:15:31;22.67;;;13.18;;
71038;SDS011;58692;43.212;27.908;2022-12-16T01:17:57;26.23;;;14.57;;
71038;SDS011;58692;43.212;27.908;2022-12-16T01:20:22;24.43;;;12.63;;
71038;SDS011;58692;43.212;27.908;2022-12-16T01:22:48;26.98;;;13.95;;
71038;SDS011;58692;43.212;27.908;2022-12-16T01:25:13;25.90;;;14.50;;
71038;SDS011;58692;43.212;27.908;2022-12-16T01:27:39;26.75;;;15.65;;
71038;SDS011;58692;43.212;27.908;2022-12-16T01:30:05;26.70;;;13.80;;
71038;SDS011;58692;43.212;27.908;2022-12-16T01:32:33;26.73;;;14.63;;
71038;SDS011;58692;43.212;27.908;2022-12-16T01:34:58;26.47;;;14.03;;
71038;SDS011;58692;43.212;27.908;2022-12-16T01:37:24;25.23;;;13.68;;
71038;SDS011;58692;43.212;27.908;2022-12-16T01:39:50;26.37;;;14.57;;
71038;SDS011;58692;43.212;27.908;2022-12-16T01:42:17;28.30;;;14.83;;
71038;SDS011;58692;43.212;27.908;2022-12-16T01:44:45;24.42;;;13.55;;
71038;SDS011;58692;43.212;27.908;2022-12-16T01:47:14;25.95;;;13.65;;
71038;SDS011;58692;43.212;27.908;2022-12-16T01:49:46;29.03;;;15.70;;
71038;SDS011;58692;43.212;27.908;2022-12-16T01:52:15;25.45;;;13.45;;
71038;SDS011;58692;43.212;27.908;2022-12-16T01:54:48;25.90;;;13.70;;
71038;SDS011;58692;43.212;27.908;2022-12-16T01:57:25;25.60;;;13.57;;
71038;SDS011;58692;43.212;27.908;2022-12-16T01:59:56;25.30;;;12.15;;
71038;SDS011;58692;43.212;27.908;2022-12-16T02:02:22;23.33;;;12.60;;
71038;SDS011;58692;43.212;27.908;2022-12-16T02:04:48;22.65;;;12.50;;
71038;SDS011;58692;43.212;27.908;2022-12-16T02:07:29;23.77;;;12.23;;
71038;SDS011;58692;43.212;27.908;2022-12-16T02:09:55;22.88;;;13.02;;
71038;SDS011;58692;43.212;27.908;2022-12-16T02:29:15;23.83;;;12.07;;
71038;SDS011;58692;43.212;27.908;2022-12-16T02:36:41;23.58;;;12.63;;
71038;SDS011;58692;43.212;27.908;2022-12-16T02:39:23;25.13;;;12.63;;
71038;SDS011;58692;43.212;27.908;2022-12-16T02:47:27;25.07;;;12.87;;
71038;SDS011;58692;43.212;27.908;2022-12-16T02:49:53;22.52;;;12.50;;
71038;SDS011;58692;43.212;27.908;2022-12-16T02:52:20;23.60;;;12.13;;
71038;SDS011;58692;43.212;27.908;2022-12-16T02:54:49;22.42;;;12.13;;
71038;SDS011;58692;43.212;27.908;2022-12-16T03:02:36;22.10;;;11.00;;
71038;SDS011;58692;43.212;27.908;2022-12-16T03:07:40;19.95;;;9.80;;
71038;SDS011;58692;43.212;27.908;2022-12-16T03:10:09;18.00;;;9.75;;
71038;SDS011;58692;43.212;27.908;2022-12-16T03:12:39;14.75;;;7.70;;
71038;SDS011;58692;43.212;27.908;2022-12-16T03:15:07;13.50;;;7.43;;
71038;SDS011;58692;43.212;27.908;2022-12-16T03:17:34;14.90;;;7.73;;
71038;SDS011;58692;43.212;27.908;2022-12-16T03:22:46;15.27;;;7.68;;
71038;SDS011;58692;43.212;27.908;2022-12-16T03:25:15;15.85;;;8.40;;
71038;SDS011;58692;43.212;27.908;2022-12-16T03:27:52;16.52;;;9.15;;
71038;SDS011;58692;43.212;27.908;2022-12-16T03:30:24;15.67;;;8.57;;
71038;SDS011;58692;43.212;27.908;2022-12-16T03:35:27;16.58;;;9.50;;
71038;SDS011;58692;43.212;27.908;2022-12-16T03:38:07;17.95;;;9.52;;
71038;SDS011;58692;43.212;27.908;2022-12-16T03:40:35;15.48;;;9.35;;
71038;SDS011;58692;43.212;27.908;2022-12-16T03:43:04;18.17;;;10.27;;
71038;SDS011;58692;43.212;27.908;2022-12-16T03:45:34;19.13;;;10.27;;
71038;SDS011;58692;43.212;27.908;2022-12-16T03:48:02;17.38;;;9.60;;
71038;SDS011;58692;43.212;27.908;2022-12-16T03:50:29;21.15;;;9.95;;
71038;SDS011;58692;43.212;27.908;2022-12-16T03:52:57;21.80;;;10.67;;
71038;SDS011;58692;43.212;27.908;2022-12-16T03:55:22;20.15;;;10.55;;
71038;SDS011;58692;43.212;27.908;2022-12-16T03:57:48;23.40;;;11.40;;
71038;SDS011;58692;43.212;27.908;2022-12-16T04:00:14;19.38;;;10.68;;
71038;SDS011;58692;43.212;27.908;2022-12-16T04:02:40;19.65;;;10.90;;
71038;SDS011;58692;43.212;27.908;2022-12-16T04:05:06;19.20;;;11.47;;
71038;SDS011;58692;43.212;27.908;2022-12-16T04:07:32;18.90;;;10.80;;
71038;SDS011;58692;43.212;27.908;2022-12-16T04:09:58;20.57;;;11.57;;
71038;SDS011;58692;43.212;27.908;2022-12-16T04:12:23;23.47;;;11.63;;
71038;SDS011;58692;43.212;27.908;2022-12-16T04:15:04;22.45;;;11.75;;
71038;SDS011;58692;43.212;27.908;2022-12-16T04:17:46;20.27;;;10.60;;
71038;SDS011;58692;43.212;27.908;2022-12-16T04:20:29;18.05;;;10.88;;
71038;SDS011;58692;43.212;27.908;2022-12-16T04:23:12;19.70;;;10.30;;
71038;SDS011;58692;43.212;27.908;2022-12-16T04:25:53;21.65;;;10.93;;
71038;SDS011;58692;43.212;27.908;2022-12-16T04:28:20;20.87;;;10.60;;
71038;SDS011;58692;43.212;27.908;2022-12-16T04:30:45;16.83;;;9.20;;
71038;SDS011;58692;43.212;27.908;2022-12-16T04:33:11;18.03;;;10.07;;
71038;SDS011;58692;43.212;27.908;2022-12-16T04:35:54;17.67;;;9.63;;
71038;SDS011;58692;43.212;27.908;2022-12-16T04:38:34;18.17;;;10.40;;
71038;SDS011;58692;43.212;27.908;2022-12-16T04:41:15;16.58;;;8.93;;
71038;SDS011;58692;43.212;27.908;2022-12-16T04:43:57;17.33;;;9.57;;
71038;SDS011;58692;43.212;27.908;2022-12-16T04:46:38;17.40;;;9.32;;
71038;SDS011;58692;43.212;27.908;2022-12-16T04:49:18;17.58;;;9.48;;
71038;SDS011;58692;43.212;27.908;2022-12-16T04:51:59;16.67;;;9.50;;
71038;SDS011;58692;43.212;27.908;2022-12-16T04:54:40;16.77;;;8.15;;
71038;SDS011;58692;43.212;27.908;2022-12-16T04:57:21;15.27;;;7.87;;
71038;SDS011;58692;43.212;27.908;2022-12-16T05:00:03;14.70;;;8.23;;
71038;SDS011;58692;43.212;27.908;2022-12-16T05:02:46;17.80;;;8.45;;
71038;SDS011;58692;43.212;27.908;2022-12-16T05:05:28;15.68;;;6.95;;
71038;SDS011;58692;43.212;27.908;2022-12-16T05:08:09;15.05;;;7.55;;
71038;SDS011;58692;43.212;27.908;2022-12-16T05:10:51;13.50;;;7.57;;
71038;SDS011;58692;43.212;27.908;2022-12-16T05:13:31;14.63;;;8.20;;
71038;SDS011;58692;43.212;27.908;2022-12-16T05:16:12;17.00;;;8.10;;
71038;SDS011;58692;43.212;27.908;2022-12-16T05:18:53;14.52;;;7.80;;
71038;SDS011;58692;43.212;27.908;2022-12-16T05:21:34;15.20;;;7.97;;
71038;SDS011;58692;43.212;27.908;2022-12-16T05:24:15;13.77;;;7.60;;
71038;SDS011;58692;43.212;27.908;2022-12-16T05:26:56;14.75;;;8.57;;
71038;SDS011;58692;43.212;27.908;2022-12-16T05:29:36;17.15;;;8.93;;
71038;SDS011;58692;43.212;27.908;2022-12-16T05:32:17;14.30;;;7.93;;
71038;SDS011;58692;43.212;27.908;2022-12-16T05:34:58;14.23;;;8.10;;
71038;SDS011;58692;43.212;27.908;2022-12-16T05:37:39;14.43;;;7.70;;
71038;SDS011;58692;43.212;27.908;2022-12-16T05:40:19;13.90;;;7.47;;
71038;SDS011;58692;43.212;27.908;2022-12-16T05:43:00;11.98;;;6.82;;
71038;SDS011;58692;43.212;27.908;2022-12-16T05:45:41;15.05;;;7.28;;
71038;SDS011;58692;43.212;27.908;2022-12-16T05:48:22;13.55;;;7.10;;
71038;SDS011;58692;43.212;27.908;2022-12-16T05:51:11;15.30;;;8.37;;
71038;SDS011;58692;43.212;27.908;2022-12-16T05:53:55;16.00;;;8.15;;
71038;SDS011;58692;43.212;27.908;2022-12-16T05:56:35;15.07;;;8.63;;
71038;SDS011;58692;43.212;27.908;2022-12-16T05:59:16;15.25;;;7.72;;
71038;SDS011;58692;43.212;27.908;2022-12-16T06:01:57;14.73;;;8.27;;
71038;SDS011;58692;43.212;27.908;2022-12-16T06:04:38;14.13;;;7.50;;
71038;SDS011;58692;43.212;27.908;2022-12-16T06:07:19;14.52;;;8.05;;
71038;SDS011;58692;43.212;27.908;2022-12-16T06:10:00;13.82;;;6.82;;
71038;SDS011;58692;43.212;27.908;2022-12-16T06:12:42;16.80;;;8.27;;
71038;SDS011;58692;43.212;27.908;2022-12-16T06:15:26;14.95;;;8.30;;
71038;SDS011;58692;43.212;27.908;2022-12-16T06:18:07;16.23;;;8.33;;
71038;SDS011;58692;43.212;27.908;2022-12-16T06:20:48;14.55;;;7.65;;
71038;SDS011;58692;43.212;27.908;2022-12-16T06:23:28;16.38;;;8.30;;
71038;SDS011;58692;43.212;27.908;2022-12-16T06:26:09;17.63;;;8.57;;
71038;SDS011;58692;43.212;27.908;2022-12-16T06:28:50;15.27;;;8.43;;
71038;SDS011;58692;43.212;27.908;2022-12-16T06:31:31;14.47;;;7.90;;
71038;SDS011;58692;43.212;27.908;2022-12-16T06:34:11;21.73;;;8.90;;
71038;SDS011;58692;43.212;27.908;2022-12-16T06:36:52;17.40;;;8.13;;
71038;SDS011;58692;43.212;27.908;2022-12-16T06:39:33;16.38;;;9.38;;
71038;SDS011;58692;43.212;27.908;2022-12-16T06:42:14;18.45;;;9.35;;
71038;SDS011;58692;43.212;27.908;2022-12-16T06:44:55;13.83;;;7.57;;
71038;SDS011;58692;43.212;27.908;2022-12-16T06:47:37;16.75;;;8.95;;
71038;SDS011;58692;43.212;27.908;2022-12-16T06:50:19;15.98;;;8.45;;
71038;SDS011;58692;43.212;27.908;2022-12-16T06:52:59;15.98;;;9.07;;
71038;SDS011;58692;43.212;27.908;2022-12-16T06:55:40;17.95;;;9.32;;
71038;SDS011;58692;43.212;27.908;2022-12-16T06:58:21;15.63;;;8.10;;
71038;SDS011;58692;43.212;27.908;2022-12-16T07:01:02;15.68;;;8.13;;
71038;SDS011;58692;43.212;27.908;2022-12-16T07:03:43;14.75;;;7.45;;
71038;SDS011;58692;43.212;27.908;2022-12-16T07:06:23;15.35;;;7.45;;
71038;SDS011;58692;43.212;27.908;2022-12-16T07:09:04;13.75;;;7.10;;
71038;SDS011;58692;43.212;27.908;2022-12-16T07:11:45;15.10;;;7.10;;
71038;SDS011;58692;43.212;27.908;2022-12-16T07:14:26;12.57;;;7.10;;
71038;SDS011;58692;43.212;27.908;2022-12-16T07:17:07;12.73;;;6.70;;
71038;SDS011;58692;43.212;27.908;2022-12-16T07:19:47;13.15;;;6.63;;
71038;SDS011;58692;43.212;27.908;2022-12-16T07:22:28;14.20;;;7.78;;
71038;SDS011;58692;43.212;27.908;2022-12-16T07:25:09;16.97;;;7.10;;
71038;SDS011;58692;43.212;27.908;2022-12-16T07:27:50;14.80;;;7.15;;
71038;SDS011;58692;43.212;27.908;2022-12-16T07:30:30;18.00;;;8.10;;
71038;SDS011;58692;43.212;27.908;2022-12-16T07:33:11;15.25;;;7.93;;
71038;SDS011;58692;43.212;27.908;2022-12-16T07:35:52;12.85;;;7.22;;
71038;SDS011;58692;43.212;27.908;2022-12-16T07:38:33;13.60;;;6.87;;
71038;SDS011;58692;43.212;27.908;2022-12-16T07:41:14;13.82;;;7.20;;
71038;SDS011;58692;43.212;27.908;2022-12-16T07:43:54;14.93;;;7.38;;
71038;SDS011;58692;43.212;27.908;2022-12-16T07:46:35;14.68;;;8.05;;
71038;SDS011;58692;43.212;27.908;2022-12-16T07:49:16;19.73;;;7.28;;
71038;SDS011;58692;43.212;27.908;2022-12-16T07:51:57;13.57;;;6.97;;
71038;SDS011;58692;43.212;27.908;2022-12-16T07:54:37;16.15;;;7.40;;
71038;SDS011;58692;43.212;27.908;2022-12-16T07:57:27;14.15;;;7.53;;
71038;SDS011;58692;43.212;27.908;2022-12-16T08:00:08;15.30;;;7.28;;
71038;SDS011;58692;43.212;27.908;2022-12-16T08:02:52;15.23;;;7.35;;
71038;SDS011;58692;43.212;27.908;2022-12-16T08:05:33;18.13;;;7.87;;
71038;SDS011;58692;43.212;27.908;2022-12-16T08:08:14;13.30;;;7.10;;
71038;SDS011;58692;43.212;27.908;2022-12-16T08:10:55;12.20;;;6.43;;
71038;SDS011;58692;43.212;27.908;2022-12-16T08:13:36;12.48;;;6.78;;
71038;SDS011;58692;43.212;27.908;2022-12-16T08:16:17;14.23;;;5.95;;
71038;SDS011;58692;43.212;27.908;2022-12-16T08:18:57;13.77;;;7.10;;
71038;SDS011;58692;43.212;27.908;2022-12-16T08:21:40;15.57;;;6.30;;
71038;SDS011;58692;43.212;27.908;2022-12-16T08:24:21;11.65;;;5.68;;
71038;SDS011;58692;43.212;27.908;2022-12-16T08:27:02;13.30;;;6.90;;
71038;SDS011;58692;43.212;27.908;2022-12-16T08:29:43;14.80;;;7.03;;
71038;SDS011;58692;43.212;27.908;2022-12-16T08:32:23;12.90;;;6.50;;
71038;SDS011;58692;43.212;27.908;2022-12-16T08:35:05;16.15;;;7.10;;
71038;SDS011;58692;43.212;27.908;2022-12-16T08:37:46;15.65;;;7.75;;
71038;SDS011;58692;43.212;27.908;2022-12-16T08:40:27;16.80;;;7.15;;
71038;SDS011;58692;43.212;27.908;2022-12-16T08:43:08;13.40;;;6.97;;
71038;SDS011;58692;43.212;27.908;2022-12-16T08:45:50;14.00;;;6.93;;
71038;SDS011;58692;43.212;27.908;2022-12-16T08:48:33;12.77;;;6.35;;
71038;SDS011;58692;43.212;27.908;2022-12-16T08:51:16;14.95;;;6.75;;
71038;SDS011;58692;43.212;27.908;2022-12-16T08:53:59;13.98;;;7.43;;
71038;SDS011;58692;43.212;27.908;2022-12-16T08:56:40;14.90;;;7.00;;
71038;SDS011;58692;43.212;27.908;2022-12-16T08:59:21;14.13;;;7.07;;
71038;SDS011;58692;43.212;27.908;2022-12-16T09:02:02;15.02;;;7.82;;
71038;SDS011;58692;43.212;27.908;2022-12-16T09:04:44;14.73;;;7.15;;
71038;SDS011;58692;43.212;27.908;2022-12-16T09:07:25;13.88;;;7.75;;
71038;SDS011;58692;43.212;27.908;2022-12-16T09:10:06;17.13;;;7.75;;
71038;SDS011;58692;43.212;27.908;2022-12-16T09:12:47;17.67;;;7.87;;
71038;SDS011;58692;43.212;27.908;2022-12-16T09:15:28;15.15;;;8.18;;
71038;SDS011;58692;43.212;27.908;2022-12-16T09:18:09;16.77;;;8.10;;
71038;SDS011;58692;43.212;27.908;2022-12-16T09:20:50;21.52;;;8.90;;
71038;SDS011;58692;43.212;27.908;2022-12-16T09:23:31;17.15;;;8.27;;
71038;SDS011;58692;43.212;27.908;2022-12-16T09:26:12;17.30;;;8.33;;
71038;SDS011;58692;43.212;27.908;2022-12-16T09:28:53;22.10;;;9.95;;
71038;SDS011;58692;43.212;27.908;2022-12-16T09:31:34;19.52;;;8.68;;
71038;SDS011;58692;43.212;27.908;2022-12-16T09:34:14;27.08;;;9.93;;
71038;SDS011;58692;43.212;27.908;2022-12-16T09:36:55;20.88;;;9.30;;
71038;SDS011;58692;43.212;27.908;2022-12-16T09:39:36;19.37;;;9.10;;
71038;SDS011;58692;43.212;27.908;2022-12-16T09:42:24;17.65;;;9.02;;
71038;SDS011;58692;43.212;27.908;2022-12-16T09:45:18;17.70;;;8.50;;
71038;SDS011;58692;43.212;27.908;2022-12-16T09:48:22;22.67;;;8.88;;
71038;SDS011;58692;43.212;27.908;2022-12-16T09:51:21;20.80;;;8.38;;
71038;SDS011;58692;43.212;27.908;2022-12-16T09:54:04;18.63;;;8.73;;
71038;SDS011;58692;43.212;27.908;2022-12-16T09:56:49;24.88;;;8.73;;
71038;SDS011;58692;43.212;27.908;2022-12-16T09:59:30;20.20;;;9.55;;
71038;SDS011;58692;43.212;27.908;2022-12-16T10:02:16;20.42;;;9.93;;
71038;SDS011;58692;43.212;27.908;2022-12-16T10:05:08;20.55;;;10.10;;
71038;SDS011;58692;43.212;27.908;2022-12-16T10:07:58;22.57;;;10.17;;
71038;SDS011;58692;43.212;27.908;2022-12-16T10:10:52;23.90;;;10.40;;
71038;SDS011;58692;43.212;27.908;2022-12-16T10:13:42;24.38;;;9.90;;
71038;SDS011;58692;43.212;27.908;2022-12-16T10:16:37;24.48;;;9.90;;
71038;SDS011;58692;43.212;27.908;2022-12-16T10:25:47;24.27;;;11.13;;
71038;SDS011;58692;43.212;27.908;2022-12-16T10:31:33;25.85;;;11.88;;
71038;SDS011;58692;43.212;27.908;2022-12-16T10:34:20;28.00;;;11.65;;
71038;SDS011;58692;43.212;27.908;2022-12-16T10:37:48;30.53;;;11.97;;
71038;SDS011;58692;43.212;27.908;2022-12-16T10:40:31;24.02;;;11.30;;
71038;SDS011;58692;43.212;27.908;2022-12-16T10:43:17;23.08;;;10.45;;
71038;SDS011;58692;43.212;27.908;2022-12-16T10:46:05;28.88;;;11.65;;
71038;SDS011;58692;43.212;27.908;2022-12-16T10:48:51;22.45;;;10.35;;
71038;SDS011;58692;43.212;27.908;2022-12-16T10:51:32;27.70;;;11.30;;
71038;SDS011;58692;43.212;27.908;2022-12-16T10:58:00;24.40;;;10.70;;
71038;SDS011;58692;43.212;27.908;2022-12-16T11:00:44;26.20;;;10.52;;
71038;SDS011;58692;43.212;27.908;2022-12-16T11:03:29;24.67;;;10.40;;
71038;SDS011;58692;43.212;27.908;2022-12-16T11:06:14;26.97;;;10.70;;
71038;SDS011;58692;43.212;27.908;2022-12-16T11:09:12;21.25;;;9.68;;
71038;SDS011;58692;43.212;27.908;2022-12-16T11:18:06;25.60;;;10.95;;
71038;SDS011;58692;43.212;27.908;2022-12-16T11:24:03;22.10;;;9.80;;
71038;SDS011;58692;43.212;27.908;2022-12-16T11:26:51;22.88;;;10.23;;
71038;SDS011;58692;43.212;27.908;2022-12-16T11:29:47;23.23;;;10.68;;
71038;SDS011;58692;43.212;27.908;2022-12-16T11:32:50;29.92;;;10.68;;
71038;SDS011;58692;43.212;27.908;2022-12-16T11:39:17;21.50;;;10.02;;
71038;SDS011;58692;43.212;27.908;2022-12-16T11:42:01;23.42;;;10.45;;
71038;SDS011;58692;43.212;27.908;2022-12-16T11:44:43;23.60;;;9.70;;
71038;SDS011;58692;43.212;27.908;2022-12-16T11:47:39;20.88;;;9.43;;
71038;SDS011;58692;43.212;27.908;2022-12-16T11:50:26;24.47;;;10.27;;
71038;SDS011;58692;43.212;27.908;2022-12-16T11:53:24;21.77;;;10.95;;
71038;SDS011;58692;43.212;27.908;2022-12-16T11:56:06;23.73;;;10.18;;
71038;SDS011;58692;43.212;27.908;2022-12-16T11:58:49;21.35;;;9.52;;
71038;SDS011;58692;43.212;27.908;2022-12-16T12:01:41;22.13;;;9.95;;
71038;SDS011;58692;43.212;27.908;2022-12-16T12:04:29;22.53;;;10.07;;
71038;SDS011;58692;43.212;27.908;2022-12-16T12:07:21;21.95;;;10.57;;
71038;SDS011;58692;43.212;27.908;2022-12-16T12:10:29;20.02;;;9.70;;
71038;SDS011;58692;43.212;27.908;2022-12-16T12:16:23;22.88;;;9.65;;
71038;SDS011;58692;43.212;27.908;2022-12-16T12:22:29;22.55;;;10.15;;
71038;SDS011;58692;43.212;27.908;2022-12-16T12:31:01;25.42;;;9.50;;
71038;SDS011;58692;43.212;27.908;2022-12-16T12:36:48;24.42;;;8.82;;
71038;SDS011;58692;43.212;27.908;2022-12-16T12:42:46;24.08;;;9.25;;
71038;SDS011;58692;43.212;27.908;2022-12-16T12:48:14;22.63;;;8.70;;
71038;SDS011;58692;43.212;27.908;2022-12-16T12:51:30;18.50;;;7.68;;
71038;SDS011;58692;43.212;27.908;2022-12-16T12:54:29;20.23;;;7.60;;
71038;SDS011;58692;43.212;27.908;2022-12-16T12:57:19;21.00;;;8.95;;
71038;SDS011;58692;43.212;27.908;2022-12-16T13:00:11;17.38;;;8.30;;
71038;SDS011;58692;43.212;27.908;2022-12-16T13:03:02;16.63;;;8.13;;
71038;SDS011;58692;43.212;27.908;2022-12-16T13:05:46;20.33;;;8.32;;
71038;SDS011;58692;43.212;27.908;2022-12-16T13:11:30;17.17;;;8.73;;
71038;SDS011;58692;43.212;27.908;2022-12-16T13:23:38;22.42;;;10.18;;
71038;SDS011;58692;43.212;27.908;2022-12-16T13:26:21;22.52;;;9.23;;
71038;SDS011;58692;43.212;27.908;2022-12-16T13:29:07;23.05;;;10.55;;
71038;SDS011;58692;43.212;27.908;2022-12-16T13:32:00;27.80;;;10.67;;
71038;SDS011;58692;43.212;27.908;2022-12-16T13:34:43;21.52;;;10.18;;
71038;SDS011;58692;43.212;27.908;2022-12-16T13:37:49;24.40;;;10.73;;
71038;SDS011;58692;43.212;27.908;2022-12-16T13:40:48;24.02;;;11.70;;
71038;SDS011;58692;43.212;27.908;2022-12-16T13:46:40;43.63;;;15.30;;
71038;SDS011;58692;43.212;27.908;2022-12-16T13:55:23;18.90;;;8.48;;
71038;SDS011;58692;43.212;27.908;2022-12-16T14:01:42;16.47;;;7.90;;
71038;SDS011;58692;43.212;27.908;2022-12-16T14:04:38;22.55;;;8.82;;
71038;SDS011;58692;43.212;27.908;2022-12-16T14:07:32;18.38;;;7.72;;
71038;SDS011;58692;43.212;27.908;2022-12-16T14:13:36;17.83;;;7.97;;
71038;SDS011;58692;43.212;27.908;2022-12-16T14:22:27;18.73;;;9.10;;
71038;SDS011;58692;43.212;27.908;2022-12-16T14:25:25;33.22;;;12.90;;
71038;SDS011;58692;43.212;27.908;2022-12-16T14:31:11;33.80;;;13.60;;
71038;SDS011;58692;43.212;27.908;2022-12-16T14:33:54;31.70;;;13.82;;
71038;SDS011;58692;43.212;27.908;2022-12-16T14:36:37;31.85;;;14.48;;
71038;SDS011;58692;43.212;27.908;2022-12-16T14:39:20;33.55;;;15.60;;
71038;SDS011;58692;43.212;27.908;2022-12-16T14:42:03;39.72;;;17.77;;
71038;SDS011;58692;43.212;27.908;2022-12-16T14:45:00;31.57;;;15.97;;
71038;SDS011;58692;43.212;27.908;2022-12-16T14:47:40;30.42;;;16.25;;
71038;SDS011;58692;43.212;27.908;2022-12-16T14:50:24;33.45;;;16.58;;
71038;SDS011;58692;43.212;27.908;2022-12-16T14:53:20;37.33;;;17.75;;
71038;SDS011;58692;43.212;27.908;2022-12-16T14:56:09;43.55;;;18.20;;
71038;SDS011;58692;43.212;27.908;2022-12-16T15:01:56;33.67;;;20.38;;
71038;SDS011;58692;43.212;27.908;2022-12-16T15:04:42;35.72;;;18.25;;
71038;SDS011;58692;43.212;27.908;2022-12-16T15:07:28;35.78;;;17.50;;
71038;SDS011;58692;43.212;27.908;2022-12-16T15:10:15;33.85;;;17.95;;
71038;SDS011;58692;43.212;27.908;2022-12-16T15:13:00;34.53;;;16.20;;
71038;SDS011;58692;43.212;27.908;2022-12-16T15:15:42;34.28;;;16.63;;
71038;SDS011;58692;43.212;27.908;2022-12-16T15:18:27;35.42;;;16.08;;
71038;SDS011;58692;43.212;27.908;2022-12-16T15:21:19;33.83;;;16.45;;
71038;SDS011;58692;43.212;27.908;2022-12-16T15:24:00;33.25;;;16.30;;
71038;SDS011;58692;43.212;27.908;2022-12-16T15:26:41;34.13;;;16.43;;
71038;SDS011;58692;43.212;27.908;2022-12-16T15:35:04;39.20;;;20.75;;
71038;SDS011;58692;43.212;27.908;2022-12-16T15:37:45;42.30;;;21.88;;
71038;SDS011;58692;43.212;27.908;2022-12-16T15:40:27;38.80;;;21.20;;
71038;SDS011;58692;43.212;27.908;2022-12-16T15:43:22;38.97;;;20.67;;
71038;SDS011;58692;43.212;27.908;2022-12-16T15:46:04;35.80;;;18.50;;
71038;SDS011;58692;43.212;27.908;2022-12-16T15:48:47;33.08;;;17.80;;
71038;SDS011;58692;43.212;27.908;2022-12-16T15:51:42;33.33;;;17.50;;
71038;SDS011;58692;43.212;27.908;2022-12-16T15:54:25;35.20;;;17.90;;
71038;SDS011;58692;43.212;27.908;2022-12-16T16:00:16;32.17;;;18.25;;
71038;SDS011;58692;43.212;27.908;2022-12-16T16:06:10;36.00;;;20.85;;
71038;SDS011;58692;43.212;27.908;2022-12-16T16:08:58;41.87;;;22.07;;
71038;SDS011;58692;43.212;27.908;2022-12-16T16:11:42;39.88;;;21.48;;
71038;SDS011;58692;43.212;27.908;2022-12-16T16:14:23;39.40;;;22.08;;
71038;SDS011;58692;43.212;27.908;2022-12-16T16:17:10;40.40;;;23.77;;
71038;SDS011;58692;43.212;27.908;2022-12-16T16:20:02;78.20;;;36.63;;
71038;SDS011;58692;43.212;27.908;2022-12-16T16:22:44;107.03;;;48.33;;
71038;SDS011;58692;43.212;27.908;2022-12-16T16:25:26;103.32;;;45.38;;
71038;SDS011;58692;43.212;27.908;2022-12-16T16:28:07;99.30;;;43.58;;
71038;SDS011;58692;43.212;27.908;2022-12-16T16:30:48;82.40;;;40.75;;
71038;SDS011;58692;43.212;27.908;2022-12-16T16:33:29;68.70;;;36.35;;
71038;SDS011;58692;43.212;27.908;2022-12-16T16:36:12;65.67;;;35.67;;
71038;SDS011;58692;43.212;27.908;2022-12-16T16:38:54;65.03;;;34.45;;
71038;SDS011;58692;43.212;27.908;2022-12-16T16:41:35;66.20;;;35.80;;
71038;SDS011;58692;43.212;27.908;2022-12-16T16:44:15;52.03;;;31.95;;
71038;SDS011;58692;43.212;27.908;2022-12-16T16:46:56;53.63;;;29.50;;
71038;SDS011;58692;43.212;27.908;2022-12-16T16:49:39;51.17;;;30.53;;
71038;SDS011;58692;43.212;27.908;2022-12-16T16:52:23;57.78;;;31.40;;
71038;SDS011;58692;43.212;27.908;2022-12-16T16:55:13;55.30;;;31.48;;
71038;SDS011;58692;43.212;27.908;2022-12-16T16:57:56;50.90;;;30.48;;
71038;SDS011;58692;43.212;27.908;2022-12-16T17:00:37;45.33;;;25.85;;
71038;SDS011;58692;43.212;27.908;2022-12-16T17:03:18;45.07;;;25.63;;
71038;SDS011;58692;43.212;27.908;2022-12-16T17:05:59;47.30;;;25.88;;
71038;SDS011;58692;43.212;27.908;2022-12-16T17:08:40;45.30;;;27.10;;
71038;SDS011;58692;43.212;27.908;2022-12-16T17:11:21;47.72;;;26.02;;
71038;SDS011;58692;43.212;27.908;2022-12-16T17:14:02;44.25;;;25.95;;
71038;SDS011;58692;43.212;27.908;2022-12-16T17:16:43;42.23;;;25.30;;
71038;SDS011;58692;43.212;27.908;2022-12-16T17:19:24;45.38;;;26.33;;
71038;SDS011;58692;43.212;27.908;2022-12-16T17:22:05;49.85;;;27.27;;
71038;SDS011;58692;43.212;27.908;2022-12-16T17:24:45;46.72;;;28.30;;
71038;SDS011;58692;43.212;27.908;2022-12-16T17:27:26;49.15;;;29.80;;
71038;SDS011;58692;43.212;27.908;2022-12-16T17:30:16;53.03;;;30.30;;
71038;SDS011;58692;43.212;27.908;2022-12-16T17:32:58;53.50;;;30.83;;
71038;SDS011;58692;43.212;27.908;2022-12-16T17:35:39;51.40;;;31.17;;
71038;SDS011;58692;43.212;27.908;2022-12-16T17:38:20;55.08;;;32.15;;
71038;SDS011;58692;43.212;27.908;2022-12-16T17:41:01;51.10;;;30.80;;
71038;SDS011;58692;43.212;27.908;2022-12-16T17:43:42;53.77;;;31.93;;
71038;SDS011;58692;43.212;27.908;2022-12-16T17:46:22;56.60;;;32.80;;